Friday, November 28, 2014
18:10 UTC
  |  Log In   |  Register Free
Airport Search:

South Big Horn County Airport
(KGEY)

South Big Horn County Airport Diagram
No Airport Diagram Available

FAA data valid effective November 13, 2014 - January 08, 2015 (unless otherwise noted).

 
 
 
 
 
 
 
 
 
 
 
 
 
 

Current Aviation Weather for South Big Horn County Airport (KGEY)

The most recent METAR observation for KGEY was updated at: 1713
METAR Summary (Translated METAR)
KGEY
281653Z AUTO VRB04KT 10SM CLR 01/M02 A2977 RMK AO2 SLP116 T00111022
KU68
281655Z AUTO 13012KT 10SM SCT120 07/M01 A2973 RMK AO2 PWINO
(28.3 nm NW from KGEY)
KWRL
281653Z AUTO 20004KT 10SM CLR M01/M04 A2977 RMK AO2 SLP117 T10111039
(33.8 nm SE from KGEY)
TAF Summary (Translated TAF)
KWRL
(33.8 nm SE from KGEY)
281124Z 2812/2912 VRB06KT P6SM FEW140 SCT200 FM282200 17007KT P6SM SCT200 WS020/26038KT
  Airport Weather Conditions for KGEY

Current weather conditions are
not available for GEY


The nearest NOAA weather station
is at U68, (28.3 nm NW from GEY)
  
 Current Weather at U68
46° F
Fair
North winds at 0.0 mph
U68 NOAA Radar

Pressure: 29.73 in
Humidity: 50%
Wind: Calm
Dew Point: 28.4°F
Visibility: 10.00 mi


Airport Weather Forecast for KGEY

Translated METAR and TAF for KGEY
Translated METAR for KGEY (1805 UTC 28 November 2014)
found at http://aviationweather.gov/adds/metars/
 
METAR text: KGEY 281753Z AUTO 14005KT 10SM CLR 03/M02 A2974 RMK AO2 SLP103 T00281017 10028 21017 58009
Conditions at: KGEY (GREYBULL , WY, US) observed 1753 UTC 28 November 2014
Temperature: 2.8°C (37°F)
Dewpoint: -1.7°C (29°F) [RH = 72%]
Pressure (altimeter): 29.74 inches Hg (1007.2 mb)
[Sea-level pressure: 1010.3 mb]
Winds: from the SE (140 degrees) at 6 MPH (5 knots; 2.6 m/s)
Visibility: 10 or more miles (16+ km)
Ceiling: at least 12,000 feet AGL
Clouds: sky clear below 12,000 feet AGL
Weather: automated observation with no human augmentation;
there may or may not be significant weather present at this time
Translated TAF for KGEY

There is no translated TAF available for this airport

Find All Airport Services Find A Hotel Find A Rental Car Find A Golf Course Find A Restaurant $100 Hamburger



FBO's on the Field
FBO Company Facility Photos Services Transportation Aviation Fuel Prices: Prices include tax
Catering Weather Repair Courtesy Rental Type 100LL JetA JetA+ MOGAS 8087
 
B & G Industries, LLC

This FBO has not yet been rated
FS:Independent
Last Updated: Nov-24
Login to update fuel prices
SS:
Contact B & G Industries, LLCMore FBO Information
 
South Big Horn County Airport

This FBO has not yet been rated
FS:Independent
Last Updated: Nov-26
Login to update fuel prices
SS:
Contact South Big Horn County AirportMore FBO Information
 
Add another FBO Facility Photos Catering Weather Repair Courtesy Rental Type 100LL JetA JetA+ MOGAS 8087
Services Transportation Aviation Fuel Prices: Prices include tax


model-print
model-print
model-print
model-print